Time;durP1;ratioP1;P1;durP2;ratioP2;P2;SDS_P1;SDS_P2;PMS_P1;PMS_P2;Temp;Humidity;BMP_temperature;BMP_pressure;BME280_temperature;BME280_humidity;BME280_pressure;Samples;Min_cycle;Max_cycle;Signal;HPM_P1;HPM_P2
2021/12/12 00:01:24;;;;;;;16.13;6.05;;;7.30;84.70;;;;;;5037155;28;20640;-85
2021/12/12 00:03:54;;;;;;;21.80;7.43;;;7.20;84.60;;;;;;5037142;28;20214;-85
2021/12/12 00:06:33;;;;;;;21.38;8.45;;;7.10;84.60;;;;;;5021912;28;20208;-85
2021/12/12 00:09:13;;;;;;;17.00;7.40;;;7.10;84.70;;;;;;5039649;28;20676;-83
2021/12/12 00:11:39;;;;;;;14.20;6.68;;;7.10;84.90;;;;;;5037985;28;20177;-83
2021/12/12 00:14:30;;;;;;;13.52;6.22;;;7.10;84.70;;;;;;5037596;28;20236;-83
2021/12/12 00:16:57;;;;;;;17.40;6.13;;;7.00;84.80;;;;;;5037871;28;20172;-83
2021/12/12 00:19:25;;;;;;;21.67;5.72;;;7.00;85.00;;;;;;5038080;28;20189;-83
2021/12/12 00:21:56;;;;;;;21.38;6.90;;;6.90;85.20;;;;;;5020460;28;20206;-83
2021/12/12 00:24:22;;;;;;;18.40;8.35;;;6.90;85.50;;;;;;5017920;28;20202;-83
2021/12/12 00:26:50;;;;;;;15.20;6.22;;;6.90;85.50;;;;;;5019890;28;20206;-83
2021/12/12 00:29:18;;;;;;;12.60;6.30;;;7.20;85.70;;;;;;5036508;28;20238;-83
2021/12/12 00:31:47;;;;;;;22.00;6.93;;;7.00;85.10;;;;;;5039292;28;20200;-83
2021/12/12 00:34:13;;;;;;;30.08;6.95;;;7.10;85.20;;;;;;5032496;28;20198;-83
2021/12/12 00:36:41;;;;;;;16.08;6.43;;;7.20;84.80;;;;;;5021387;28;20174;-83
2021/12/12 00:39:14;;;;;;;20.40;7.97;;;7.30;84.70;;;;;;5021170;28;20186;-83
2021/12/12 00:41:49;;;;;;;22.70;5.95;;;7.30;84.70;;;;;;5021200;28;20167;-84
2021/12/12 00:44:15;;;;;;;20.02;7.20;;;7.50;84.50;;;;;;5027356;28;20616;-84
2021/12/12 00:46:42;;;;;;;23.33;8.38;;;7.10;84.50;;;;;;5017397;28;20289;-84
2021/12/12 00:49:08;;;;;;;14.02;6.60;;;7.20;85.10;;;;;;5033804;28;20209;-84
2021/12/12 00:51:37;;;;;;;16.48;6.60;;;7.30;85.50;;;;;;5037057;28;20653;-84
2021/12/12 00:54:05;;;;;;;21.10;7.18;;;7.30;85.70;;;;;;5037578;28;20194;-84
2021/12/12 00:56:31;;;;;;;23.25;7.10;;;7.20;86.10;;;;;;5036679;28;20666;-84
2021/12/12 00:58:57;;;;;;;12.88;6.95;;;7.10;86.60;;;;;;5036526;28;20213;-84
2021/12/12 01:01:28;;;;;;;18.73;7.05;;;6.90;87.20;;;;;;5034929;28;20181;-84
2021/12/12 01:04:09;;;;;;;22.95;7.60;;;6.90;88.10;;;;;;5036840;28;20267;-84
2021/12/12 01:06:36;;;;;;;22.27;6.95;;;6.80;88.50;;;;;;5037315;28;20169;-85
2021/12/12 01:09:06;;;;;;;23.80;7.55;;;7.00;88.80;;;;;;5035309;28;20293;-84
2021/12/12 01:11:40;;;;;;;24.38;7.25;;;6.80;89.10;;;;;;5034871;28;20178;-83
2021/12/12 01:14:09;;;;;;;25.88;8.48;;;6.70;89.70;;;;;;5036519;28;20204;-84
2021/12/12 01:16:40;;;;;;;20.23;6.20;;;6.90;90.00;;;;;;5031597;28;20241;-83
2021/12/12 01:19:53;;;;;;;18.50;7.20;;;6.90;90.00;;;;;;5026586;28;20194;-83
2021/12/12 01:22:28;;;;;;;17.60;7.25;;;6.90;90.00;;;;;;5031296;28;20252;-84
2021/12/12 01:24:55;;;;;;;19.17;8.02;;;6.90;90.70;;;;;;5029952;28;20261;-83
2021/12/12 01:27:22;;;;;;;27.40;7.70;;;6.80;89.80;;;;;;5032179;28;20189;-84
2021/12/12 01:29:50;;;;;;;17.67;9.13;;;6.90;90.00;;;;;;5049737;28;20641;-84
2021/12/12 01:32:25;;;;;;;16.95;7.50;;;6.90;89.90;;;;;;5042274;28;20208;-84
2021/12/12 01:34:51;;;;;;;20.20;6.55;;;6.90;89.80;;;;;;5033862;28;20216;-84
2021/12/12 01:39:59;;;;;;;21.85;6.95;;;7.00;90.00;;;;;;5038528;28;20214;-83
2021/12/12 01:42:32;;;;;;;19.48;6.82;;;7.00;90.00;;;;;;5036067;28;20507;-84
2021/12/12 01:45:19;;;;;;;26.00;7.13;;;6.90;90.20;;;;;;5035025;28;20198;-84
2021/12/12 01:47:57;;;;;;;21.48;7.97;;;6.80;90.50;;;;;;5035738;28;20182;-84
2021/12/12 01:50:31;;;;;;;23.15;6.72;;;6.80;91.00;;;;;;5041072;28;20617;-83
2021/12/12 01:53:00;;;;;;;16.73;6.93;;;6.90;91.40;;;;;;5043532;28;20193;-84
2021/12/12 01:55:35;;;;;;;18.60;7.82;;;7.00;91.40;;;;;;5042782;28;20261;-83
2021/12/12 01:58:07;;;;;;;26.70;6.90;;;6.90;91.50;;;;;;5040513;28;20188;-84
2021/12/12 02:00:45;;;;;;;16.20;6.68;;;6.80;91.70;;;;;;5040100;28;20181;-84
2021/12/12 02:03:13;;;;;;;15.00;7.05;;;6.90;92.10;;;;;;5043758;28;20182;-83
2021/12/12 02:05:39;;;;;;;17.42;6.82;;;6.80;92.20;;;;;;5050235;28;20201;-84
2021/12/12 02:08:15;;;;;;;21.35;7.00;;;6.90;92.40;;;;;;5049168;28;20224;-83
2021/12/12 02:10:44;;;;;;;20.20;6.82;;;6.90;92.50;;;;;;5049183;28;20268;-83
2021/12/12 02:13:13;;;;;;;16.45;6.30;;;6.80;92.80;;;;;;5029235;28;20174;-84
2021/12/12 02:15:42;;;;;;;13.65;5.45;;;6.80;93.00;;;;;;5042027;28;20228;-83
2021/12/12 02:18:12;;;;;;;12.13;6.72;;;6.80;93.20;;;;;;5040103;28;20182;-84
2021/12/12 02:20:53;;;;;;;15.80;5.97;;;6.90;93.40;;;;;;5038331;28;20205;-83
2021/12/12 02:23:31;;;;;;;10.27;5.78;;;6.90;93.30;;;;;;5036793;28;20174;-83
2021/12/12 02:37:07;;;;;;;23.80;5.45;;;7.10;93.10;;;;;;5019122;28;20240;-83
2021/12/12 02:39:34;;;;;;;10.98;5.28;;;7.20;93.00;;;;;;5017568;28;20191;-83
2021/12/12 02:42:05;;;;;;;14.02;6.28;;;7.40;93.00;;;;;;5018488;28;20185;-83
2021/12/12 02:44:34;;;;;;;16.85;6.30;;;7.40;92.80;;;;;;5018392;28;20281;-83
2021/12/12 02:47:08;;;;;;;12.10;5.45;;;7.50;92.70;;;;;;5017027;28;20183;-83
2021/12/12 02:49:54;;;;;;;20.63;6.82;;;7.40;92.40;;;;;;5002138;28;20252;-83
2021/12/12 02:52:30;;;;;;;10.40;5.93;;;7.50;92.60;;;;;;5020093;28;20177;-84
2021/12/12 02:55:01;;;;;;;19.92;6.97;;;7.60;92.50;;;;;;5027003;28;20694;-84
2021/12/12 02:57:27;;;;;;;13.70;6.63;;;7.50;92.50;;;;;;5007816;28;20194;-84
2021/12/12 02:59:53;;;;;;;19.63;6.32;;;7.50;92.50;;;;;;5024689;28;20194;-84
2021/12/12 03:02:26;;;;;;;14.93;6.30;;;7.60;92.50;;;;;;5034866;28;20593;-84
2021/12/12 03:04:58;;;;;;;14.43;5.97;;;7.50;92.50;;;;;;5034776;28;20566;-84
2021/12/12 03:07:25;;;;;;;10.18;6.75;;;7.60;92.50;;;;;;5021870;28;20179;-84
2021/12/12 03:09:56;;;;;;;15.98;6.80;;;7.60;92.50;;;;;;5021447;28;20210;-84
2021/12/12 03:12:30;;;;;;;13.90;6.65;;;7.60;92.50;;;;;;5030183;28;20540;-84
2021/12/12 03:14:59;;;;;;;14.50;6.22;;;7.80;92.50;;;;;;5026468;28;20206;-84
2021/12/12 03:17:25;;;;;;;12.20;6.97;;;7.80;92.30;;;;;;5021360;28;20273;-84
2021/12/12 03:19:55;;;;;;;12.88;6.20;;;7.80;92.30;;;;;;5039261;28;20225;-84
2021/12/12 03:22:26;;;;;;;14.27;6.70;;;7.80;92.10;;;;;;5026025;28;20199;-84
2021/12/12 03:24:53;;;;;;;11.55;7.13;;;7.70;92.00;;;;;;5032945;28;20236;-84
2021/12/12 03:27:20;;;;;;;19.70;7.75;;;7.80;92.00;;;;;;5040463;28;20269;-84
2021/12/12 03:29:47;;;;;;;17.98;7.20;;;7.80;92.00;;;;;;5025342;28;20588;-84
2021/12/12 03:32:16;;;;;;;14.75;7.03;;;7.80;91.90;;;;;;5054062;28;20169;-84
2021/12/12 03:34:52;;;;;;;15.10;7.43;;;7.80;91.80;;;;;;5044946;28;20257;-84
2021/12/12 03:37:23;;;;;;;23.88;7.28;;;7.90;91.90;;;;;;5030898;28;20591;-84
2021/12/12 03:39:52;;;;;;;21.55;7.82;;;7.90;91.90;;;;;;5017492;28;20601;-84
2021/12/12 03:42:23;;;;;;;14.05;6.75;;;7.80;91.70;;;;;;5026528;28;20179;-84
2021/12/12 03:44:50;;;;;;;12.25;7.57;;;7.70;91.70;;;;;;5019528;28;20237;-83
2021/12/12 03:47:26;;;;;;;10.52;7.10;;;7.70;91.90;;;;;;5018540;28;20269;-84
2021/12/12 03:49:53;;;;;;;12.80;7.57;;;7.80;91.90;;;;;;5036355;28;20201;-84
2021/12/12 03:52:22;;;;;;;9.52;6.63;;;7.60;91.80;;;;;;5018605;28;20190;-84
2021/12/12 03:54:49;;;;;;;12.15;7.55;;;7.60;92.20;;;;;;5018068;28;20198;-85
2021/12/12 03:57:18;;;;;;;11.90;6.90;;;7.60;92.30;;;;;;5028564;28;20594;-84
2021/12/12 03:59:44;;;;;;;10.70;7.65;;;7.60;92.40;;;;;;5022404;28;20233;-84
2021/12/12 04:02:10;;;;;;;18.88;8.52;;;7.60;92.50;;;;;;5035911;28;20653;-84
2021/12/12 04:04:40;;;;;;;22.03;8.50;;;7.70;92.50;;;;;;5035409;28;20282;-84
2021/12/12 04:07:16;;;;;;;14.88;8.35;;;7.60;92.30;;;;;;5022104;28;20986;-84
2021/12/12 04:09:42;;;;;;;12.90;8.93;;;7.70;92.60;;;;;;5032903;28;20235;-84
2021/12/12 04:12:11;;;;;;;21.00;8.60;;;7.70;92.50;;;;;;5040379;28;20202;-84
2021/12/12 04:14:37;;;;;;;13.27;7.78;;;7.80;92.50;;;;;;5042988;28;20532;-85
2021/12/12 04:17:07;;;;;;;24.92;9.63;;;7.70;92.40;;;;;;5034271;28;20182;-84
2021/12/12 04:19:33;;;;;;;10.10;7.82;;;7.80;92.50;;;;;;5037227;28;20193;-84
2021/12/12 04:22:02;;;;;;;15.33;8.30;;;7.90;92.60;;;;;;5039001;28;20288;-84
2021/12/12 04:24:33;;;;;;;12.40;7.85;;;8.10;92.50;;;;;;5022294;28;20488;-84
2021/12/12 04:26:59;;;;;;;10.93;7.32;;;8.10;92.40;;;;;;5038893;28;20573;-84
2021/12/12 04:29:28;;;;;;;18.90;8.90;;;8.20;92.10;;;;;;5044157;28;20572;-84
2021/12/12 04:31:58;;;;;;;13.82;8.30;;;8.10;92.00;;;;;;5026212;28;20178;-84
2021/12/12 04:34:27;;;;;;;17.27;9.40;;;8.10;91.90;;;;;;5035342;28;20210;-84
2021/12/12 04:36:55;;;;;;;12.50;9.30;;;8.00;91.60;;;;;;5027019;28;20197;-84
2021/12/12 04:39:27;;;;;;;13.25;9.10;;;8.10;91.70;;;;;;5016898;28;20200;-85
2021/12/12 04:41:59;;;;;;;13.98;8.82;;;8.10;91.70;;;;;;5031304;28;20646;-85
2021/12/12 04:44:30;;;;;;;12.07;8.57;;;8.10;91.70;;;;;;5014975;28;20203;-84
2021/12/12 04:49:56;;;;;;;16.60;10.25;;;8.40;91.70;;;;;;5019048;28;20757;-84
2021/12/12 04:52:44;;;;;;;19.55;9.85;;;8.30;91.60;;;;;;5023605;28;20219;-84
2021/12/12 04:55:33;;;;;;;16.55;8.85;;;8.40;91.40;;;;;;5025128;28;20536;-84
2021/12/12 04:58:04;;;;;;;15.65;10.20;;;8.50;91.20;;;;;;5032731;28;20189;-85
2021/12/12 05:00:35;;;;;;;16.13;10.13;;;8.30;91.00;;;;;;5035742;28;21259;-84
2021/12/12 05:03:28;;;;;;;21.70;9.57;;;8.30;91.00;;;;;;5027350;28;20197;-85
2021/12/12 05:06:08;;;;;;;15.80;10.45;;;8.20;91.20;;;;;;5022980;28;20199;-84
2021/12/12 05:08:39;;;;;;;12.40;9.15;;;8.30;91.40;;;;;;5028084;28;20213;-84
2021/12/12 05:11:11;;;;;;;12.23;9.38;;;8.30;91.40;;;;;;5021705;28;20217;-85
2021/12/12 05:14:03;;;;;;;14.15;9.38;;;8.50;92.20;;;;;;5032896;28;20171;-85
2021/12/12 05:16:32;;;;;;;18.42;8.57;;;8.40;91.30;;;;;;5031748;28;20239;-84
2021/12/12 05:19:12;;;;;;;13.95;9.32;;;8.50;91.20;;;;;;5021447;28;20195;-84
2021/12/12 05:21:45;;;;;;;15.85;9.82;;;8.50;91.20;;;;;;5035505;28;20619;-84
2021/12/12 05:24:13;;;;;;;12.82;9.13;;;8.60;91.00;;;;;;5019652;28;20206;-84
2021/12/12 05:26:52;;;;;;;14.32;9.65;;;8.70;91.00;;;;;;5015750;28;20248;-85
2021/12/12 05:29:22;;;;;;;14.68;9.50;;;8.60;90.80;;;;;;5015662;28;20206;-85
2021/12/12 05:31:51;;;;;;;19.77;8.05;;;8.60;90.70;;;;;;5027937;28;20182;-85
2021/12/12 05:34:19;;;;;;;14.73;8.57;;;8.60;90.80;;;;;;5028370;28;20194;-85
2021/12/12 05:36:46;;;;;;;10.18;8.10;;;8.70;90.80;;;;;;5033193;28;20177;-85
2021/12/12 05:39:12;;;;;;;12.05;8.77;;;8.60;90.60;;;;;;5021462;28;20181;-84
2021/12/12 05:41:38;;;;;;;10.38;7.90;;;8.60;90.70;;;;;;5035123;28;20204;-84
2021/12/12 05:44:05;;;;;;;17.23;9.27;;;8.50;90.70;;;;;;5036359;28;20205;-83
2021/12/12 05:46:32;;;;;;;14.30;9.20;;;8.60;90.70;;;;;;5030106;28;20258;-84
2021/12/12 05:49:00;;;;;;;11.70;8.82;;;8.50;90.80;;;;;;5018129;28;20224;-84
2021/12/12 05:51:28;;;;;;;13.23;10.02;;;8.60;90.90;;;;;;5017546;28;20189;-84
2021/12/12 05:53:55;;;;;;;10.57;7.88;;;8.50;91.00;;;;;;5016975;28;20565;-84
2021/12/12 05:56:27;;;;;;;13.77;8.57;;;8.70;91.10;;;;;;5036210;28;20182;-84
2021/12/12 05:58:54;;;;;;;15.77;8.93;;;8.80;91.00;;;;;;5020134;28;20178;-84
2021/12/12 06:01:20;;;;;;;9.27;8.00;;;8.70;90.80;;;;;;5025190;28;20232;-83
2021/12/12 06:03:49;;;;;;;12.65;8.50;;;8.70;90.90;;;;;;5036088;28;20240;-84
2021/12/12 06:06:20;;;;;;;12.45;8.23;;;8.70;90.80;;;;;;5019194;28;20187;-84
2021/12/12 06:08:48;;;;;;;12.32;7.93;;;8.80;90.80;;;;;;5015995;28;20571;-84
2021/12/12 06:11:16;;;;;;;15.13;8.95;;;8.80;90.70;;;;;;5015999;28;20189;-85
2021/12/12 06:13:43;;;;;;;9.68;8.35;;;8.80;90.60;;;;;;5033750;28;20178;-84
2021/12/12 06:16:18;;;;;;;12.65;8.82;;;8.80;90.50;;;;;;5034663;28;20555;-84
2021/12/12 06:18:50;;;;;;;13.63;8.52;;;8.90;90.50;;;;;;5017420;28;20622;-84
2021/12/12 06:21:16;;;;;;;11.50;8.40;;;8.80;90.40;;;;;;5018123;28;20513;-84
2021/12/12 06:23:42;;;;;;;10.05;8.00;;;8.80;90.40;;;;;;5020379;28;20182;-84
2021/12/12 06:26:09;;;;;;;15.82;9.25;;;8.80;90.50;;;;;;5021454;28;20191;-85
2021/12/12 06:28:39;;;;;;;9.73;7.95;;;8.70;90.70;;;;;;5034778;28;20293;-84
2021/12/12 06:31:06;;;;;;;16.35;8.70;;;8.80;90.80;;;;;;5024642;28;20229;-84
2021/12/12 06:33:32;;;;;;;13.10;9.13;;;8.80;90.60;;;;;;5025898;28;20179;-84
2021/12/12 06:35:59;;;;;;;10.23;8.13;;;9.00;90.70;;;;;;5038817;28;20178;-84
2021/12/12 06:38:25;;;;;;;13.23;8.25;;;9.00;90.50;;;;;;5035377;28;20195;-84
2021/12/12 06:40:53;;;;;;;17.17;8.27;;;8.90;90.40;;;;;;5035992;28;20563;-84
2021/12/12 06:43:21;;;;;;;14.23;8.90;;;9.00;90.50;;;;;;5033137;28;20174;-84
2021/12/12 06:45:48;;;;;;;13.20;8.32;;;9.00;90.30;;;;;;5023033;28;20218;-84
2021/12/12 06:48:15;;;;;;;16.17;8.45;;;9.00;90.30;;;;;;5028328;28;20206;-84
2021/12/12 06:50:43;;;;;;;12.73;8.10;;;9.00;90.30;;;;;;5032606;28;20186;-85
2021/12/12 06:53:12;;;;;;;16.45;9.27;;;9.10;90.30;;;;;;5033109;28;20212;-84
2021/12/12 06:55:43;;;;;;;15.52;8.75;;;9.00;90.20;;;;;;5038783;28;20231;-84
2021/12/12 06:58:11;;;;;;;16.13;8.73;;;9.00;90.40;;;;;;5043451;28;20197;-85
2021/12/12 07:00:38;;;;;;;21.42;9.70;;;9.10;90.50;;;;;;5029405;28;20178;-85
2021/12/12 07:03:04;;;;;;;17.30;9.02;;;9.10;90.50;;;;;;5024614;28;20218;-84
2021/12/12 07:05:31;;;;;;;14.75;9.77;;;9.10;90.30;;;;;;5025618;28;20197;-84
2021/12/12 07:07:58;;;;;;;16.95;8.77;;;9.20;90.20;;;;;;5040838;28;20206;-84
2021/12/12 07:10:27;;;;;;;20.08;8.68;;;9.20;90.20;;;;;;5022297;28;20712;-84
2021/12/12 07:12:56;;;;;;;16.52;9.55;;;9.10;90.20;;;;;;5027921;28;20189;-84
2021/12/12 07:15:26;;;;;;;23.17;10.40;;;8.90;90.20;;;;;;5033107;28;20289;-85
2021/12/12 07:17:55;;;;;;;19.23;9.95;;;9.10;90.60;;;;;;5030022;28;20293;-84
2021/12/12 07:20:22;;;;;;;14.77;9.27;;;9.00;90.60;;;;;;5047995;28;20204;-85
2021/12/12 07:22:47;;;;;;;25.30;10.35;;;9.10;90.90;;;;;;5057338;28;20166;-85
2021/12/12 07:25:15;;;;;;;25.27;11.40;;;9.10;91.00;;;;;;5035272;28;20293;-85
2021/12/12 07:27:41;;;;;;;21.00;11.05;;;9.20;91.00;;;;;;5024969;28;20272;-85
2021/12/12 07:30:09;;;;;;;23.40;12.17;;;9.20;91.00;;;;;;5024813;28;20206;-84
2021/12/12 07:32:37;;;;;;;26.17;11.10;;;9.20;90.90;;;;;;5026538;28;20418;-85
2021/12/12 07:35:10;;;;;;;31.60;12.32;;;9.20;90.90;;;;;;5026847;28;20199;-85
2021/12/12 07:37:38;;;;;;;24.67;10.70;;;9.20;90.90;;;;;;5021669;28;20159;-85
2021/12/12 07:40:08;;;;;;;28.38;11.65;;;9.20;91.00;;;;;;5019804;28;20246;-85
2021/12/12 07:42:35;;;;;;;28.33;13.23;;;9.10;91.00;;;;;;5025639;28;20170;-85
2021/12/12 07:45:04;;;;;;;21.98;11.52;;;9.30;91.10;;;;;;5038650;28;20193;-85
2021/12/12 07:47:30;;;;;;;23.38;11.05;;;9.40;90.90;;;;;;5021294;28;20283;-85
2021/12/12 07:49:56;;;;;;;22.95;10.68;;;9.40;90.60;;;;;;5022780;28;20210;-85
2021/12/12 07:52:26;;;;;;;19.90;11.27;;;9.50;90.60;;;;;;5034609;28;20205;-86
2021/12/12 07:54:55;;;;;;;17.98;10.63;;;9.50;90.40;;;;;;5033371;28;20496;-86
2021/12/12 07:57:22;;;;;;;26.00;10.40;;;9.30;90.30;;;;;;5048383;28;20186;-85
2021/12/12 07:59:48;;;;;;;18.75;10.48;;;9.50;90.50;;;;;;5053805;28;20221;-86
2021/12/12 08:02:16;;;;;;;25.23;11.15;;;9.40;90.50;;;;;;5036142;28;20265;-84
2021/12/12 08:04:43;;;;;;;26.50;11.25;;;9.30;90.50;;;;;;5042047;28;20198;-84
2021/12/12 08:07:15;;;;;;;28.65;10.60;;;9.40;90.60;;;;;;5024970;28;20281;-83
2021/12/12 08:09:43;;;;;;;24.25;11.07;;;9.40;90.60;;;;;;5018209;28;20202;-81
2021/12/12 08:12:15;;;;;;;18.88;10.52;;;9.30;90.70;;;;;;5026825;28;20182;-83
2021/12/12 08:14:42;;;;;;;40.30;12.43;;;9.40;90.80;;;;;;5022638;28;20291;-81
2021/12/12 08:17:10;;;;;;;32.15;12.05;;;9.50;90.80;;;;;;5023360;28;20213;-81
2021/12/12 08:19:36;;;;;;;22.05;10.50;;;9.40;90.70;;;;;;5025518;28;20300;-81
2021/12/12 08:22:05;;;;;;;20.88;9.75;;;9.60;90.80;;;;;;5032317;28;20197;-81
2021/12/12 08:24:33;;;;;;;25.17;10.93;;;9.50;90.70;;;;;;5036926;28;20205;-82
2021/12/12 08:26:59;;;;;;;22.73;10.88;;;9.50;90.80;;;;;;5037591;28;20190;-81
2021/12/12 08:29:26;;;;;;;28.15;9.77;;;9.60;90.60;;;;;;5028425;28;20686;-82
2021/12/12 08:31:52;;;;;;;29.52;11.18;;;9.70;90.60;;;;;;5020930;28;20190;-82
2021/12/12 08:34:18;;;;;;;20.65;11.82;;;9.70;90.60;;;;;;5019296;28;20206;-81
2021/12/12 08:36:49;;;;;;;24.58;10.18;;;9.70;90.50;;;;;;5021032;28;20265;-82
2021/12/12 08:39:17;;;;;;;23.65;11.15;;;9.70;90.50;;;;;;5038198;28;20708;-82
2021/12/12 08:41:45;;;;;;;23.63;11.40;;;9.80;90.40;;;;;;5035773;28;20190;-82
2021/12/12 08:44:12;;;;;;;26.05;10.93;;;9.70;90.30;;;;;;5034189;28;20209;-82
2021/12/12 08:46:42;;;;;;;27.73;11.68;;;9.80;90.20;;;;;;5027405;28;20182;-82
2021/12/12 08:49:09;;;;;;;37.95;13.45;;;9.70;90.10;;;;;;5028476;28;20664;-82
2021/12/12 08:51:42;;;;;;;23.00;12.73;;;9.80;90.20;;;;;;5043942;28;20177;-82
2021/12/12 08:54:15;;;;;;;17.98;10.55;;;9.80;90.40;;;;;;5048980;28;20211;-81
2021/12/12 08:56:48;;;;;;;24.27;10.93;;;9.80;90.40;;;;;;5047043;28;20711;-82
2021/12/12 08:59:22;;;;;;;27.85;12.43;;;9.80;90.40;;;;;;5050934;28;20229;-81
2021/12/12 09:01:51;;;;;;;22.17;10.63;;;9.80;90.40;;;;;;5046832;28;20181;-82
2021/12/12 09:04:17;;;;;;;28.00;11.73;;;9.80;90.40;;;;;;5045599;28;20247;-82
2021/12/12 09:06:57;;;;;;;26.38;12.02;;;9.80;90.50;;;;;;5053106;28;20204;-81
2021/12/12 09:09:27;;;;;;;19.90;10.85;;;10.00;90.80;;;;;;5047539;28;20194;-82
2021/12/12 09:12:11;;;;;;;29.10;13.90;;;10.00;90.70;;;;;;5042007;28;20231;-82
2021/12/12 09:14:45;;;;;;;22.73;12.02;;;10.00;90.70;;;;;;5034728;28;20189;-82
2021/12/12 09:17:27;;;;;;;28.08;12.80;;;10.00;90.80;;;;;;5023919;28;20642;-82
2021/12/12 09:19:56;;;;;;;26.90;13.27;;;10.10;90.80;;;;;;5038711;28;20280;-82
2021/12/12 09:22:30;;;;;;;25.80;12.73;;;10.10;90.80;;;;;;5054392;28;20196;-82
2021/12/12 09:25:11;;;;;;;23.17;11.10;;;10.10;90.60;;;;;;5041413;28;20200;-82
2021/12/12 09:27:47;;;;;;;24.42;11.10;;;10.00;90.50;;;;;;5037366;28;20178;-83
2021/12/12 09:30:20;;;;;;;26.00;11.10;;;10.10;90.70;;;;;;5046907;28;20287;-82
2021/12/12 09:33:17;;;;;;;26.98;12.68;;;10.10;90.40;;;;;;5040119;28;20186;-82
2021/12/12 09:36:01;;;;;;;33.60;12.07;;;10.00;90.20;;;;;;5044610;28;20248;-82
2021/12/12 09:38:38;;;;;;;23.00;12.02;;;10.20;90.40;;;;;;5041096;28;20197;-84
2021/12/12 09:41:45;;;;;;;21.85;11.77;;;10.10;90.30;;;;;;5045624;28;20192;-82
2021/12/12 09:44:39;;;;;;;14.45;10.15;;;10.10;90.30;;;;;;5021346;28;20213;-81
2021/12/12 09:47:56;;;;;;;20.38;11.98;;;10.10;90.30;;;;;;5046754;28;20205;-84
2021/12/12 09:54:01;;;;;;;22.45;11.40;;;10.10;90.40;;;;;;5044005;28;20252;-81
2021/12/12 09:56:40;;;;;;;27.02;11.38;;;10.20;90.40;;;;;;5044588;28;20185;-81
2021/12/12 09:59:42;;;;;;;22.27;12.05;;;10.30;90.40;;;;;;5054759;28;20205;-82
2021/12/12 10:02:14;;;;;;;23.13;12.80;;;10.30;90.50;;;;;;5053855;28;20172;-82
2021/12/12 10:05:12;;;;;;;20.35;10.35;;;10.40;90.50;;;;;;5045201;28;20268;-83
2021/12/12 10:08:16;;;;;;;27.05;12.80;;;10.30;90.40;;;;;;5046165;28;20197;-82
2021/12/12 10:11:05;;;;;;;20.65;10.20;;;10.20;90.20;;;;;;5045128;28;20189;-83
2021/12/12 10:13:41;;;;;;;19.70;11.13;;;10.20;90.40;;;;;;5043874;28;20174;-83
2021/12/12 10:16:47;;;;;;;21.33;10.95;;;10.30;90.70;;;;;;5037167;28;20266;-84
2021/12/12 10:19:43;;;;;;;23.88;11.02;;;10.40;90.80;;;;;;5026812;28;20191;-84
2021/12/12 10:22:27;;;;;;;17.05;10.63;;;10.40;90.60;;;;;;5040230;28;20237;-81
2021/12/12 10:25:10;;;;;;;22.38;11.15;;;10.50;90.60;;;;;;5039764;28;20206;-81
2021/12/12 10:27:56;;;;;;;23.77;10.32;;;10.40;91.10;;;;;;5031424;28;20166;-82
2021/12/12 10:30:27;;;;;;;20.38;11.50;;;10.40;90.40;;;;;;5048073;28;20227;-82
2021/12/12 10:33:15;;;;;;;25.00;11.60;;;10.60;90.30;;;;;;5044566;28;20199;-82
2021/12/12 10:35:58;;;;;;;24.30;11.93;;;10.50;90.30;;;;;;5052715;28;20201;-83
2021/12/12 10:38:36;;;;;;;22.27;11.93;;;10.60;90.30;;;;;;5046441;28;20181;-82
2021/12/12 10:41:24;;;;;;;25.88;11.48;;;10.50;90.20;;;;;;5052711;28;20183;-83
2021/12/12 10:44:19;;;;;;;15.18;9.43;;;10.70;90.10;;;;;;5048311;28;20216;-83
2021/12/12 10:47:13;;;;;;;19.77;10.57;;;10.60;89.80;;;;;;5044138;28;20189;-82
2021/12/12 10:49:48;;;;;;;21.13;11.23;;;10.50;90.00;;;;;;5051488;28;20222;-82
2021/12/12 10:52:30;;;;;;;19.63;11.57;;;10.70;90.10;;;;;;5046759;28;20178;-83
2021/12/12 10:55:30;;;;;;;23.65;11.73;;;10.50;90.10;;;;;;5025002;28;20280;-82
2021/12/12 10:58:18;;;;;;;22.50;11.15;;;10.60;90.20;;;;;;5034644;28;20312;-83
2021/12/12 11:00:50;;;;;;;24.55;12.48;;;10.50;90.20;;;;;;5044448;28;20745;-82
2021/12/12 11:03:35;;;;;;;17.17;10.73;;;10.50;90.30;;;;;;5050717;28;20182;-82
2021/12/12 11:06:16;;;;;;;18.70;12.35;;;10.50;90.40;;;;;;5044596;28;20182;-83
2021/12/12 11:09:02;;;;;;;30.98;12.32;;;10.60;90.50;;;;;;5048167;28;20213;-82
2021/12/12 11:12:03;;;;;;;24.42;12.82;;;10.60;90.60;;;;;;5040711;28;20584;-82
2021/12/12 11:14:35;;;;;;;21.80;12.57;;;10.60;90.90;;;;;;5040096;28;20198;-83
2021/12/12 11:17:14;;;;;;;26.25;13.77;;;10.70;90.70;;;;;;5040320;28;20186;-83
2021/12/12 11:19:55;;;;;;;26.33;13.45;;;10.80;90.70;;;;;;5042453;28;20605;-82
2021/12/12 11:22:29;;;;;;;28.38;14.68;;;10.70;90.60;;;;;;5044661;28;20193;-83
2021/12/12 11:25:18;;;;;;;26.17;12.52;;;10.70;90.70;;;;;;5044475;28;20299;-82
2021/12/12 11:27:58;;;;;;;19.85;11.25;;;10.80;90.60;;;;;;5035052;28;20181;-81
2021/12/12 11:30:34;;;;;;;34.05;16.48;;;10.80;90.60;;;;;;5029085;28;20267;-80
2021/12/12 11:33:02;;;;;;;24.73;15.27;;;10.70;90.60;;;;;;5032668;28;20205;-82
2021/12/12 11:35:29;;;;;;;25.27;14.48;;;10.70;90.50;;;;;;5026030;28;20209;-82
2021/12/12 11:38:32;;;;;;;26.42;15.02;;;10.80;90.40;;;;;;5034511;28;20186;-82
2021/12/12 11:40:58;;;;;;;23.55;14.18;;;10.80;90.40;;;;;;5008378;28;20189;-83
2021/12/12 11:43:41;;;;;;;31.27;16.53;;;10.90;90.50;;;;;;5021344;28;20182;-81
2021/12/12 11:46:31;;;;;;;28.27;15.15;;;10.90;90.50;;;;;;5034300;28;20199;-81
2021/12/12 11:49:16;;;;;;;37.30;16.42;;;10.90;90.50;;;;;;5025381;28;20748;-82
2021/12/12 11:51:51;;;;;;;28.77;15.63;;;11.00;90.60;;;;;;5029107;28;20174;-81
2021/12/12 11:54:46;;;;;;;31.40;16.25;;;11.00;90.50;;;;;;5034867;28;20202;-82
2021/12/12 11:57:21;;;;;;;27.23;16.20;;;10.90;90.60;;;;;;5028102;28;20200;-82
2021/12/12 11:59:58;;;;;;;32.25;18.45;;;10.90;90.50;;;;;;5022791;28;20551;-83
2021/12/12 12:02:39;;;;;;;33.15;17.35;;;10.90;90.40;;;;;;5035520;28;20239;-83
2021/12/12 12:05:35;;;;;;;29.30;17.98;;;11.00;90.50;;;;;;5028406;28;20236;-84
2021/12/12 12:08:13;;;;;;;32.90;17.05;;;11.00;90.50;;;;;;5018289;28;20208;-81
2021/12/12 12:11:01;;;;;;;32.25;17.13;;;11.10;90.40;;;;;;5035257;28;20189;-84
2021/12/12 12:13:34;;;;;;;26.67;16.23;;;11.00;90.40;;;;;;5027230;28;20174;-83
2021/12/12 12:16:17;;;;;;;33.45;15.98;;;11.00;90.50;;;;;;5038470;28;20235;-83
2021/12/12 12:19:02;;;;;;;27.48;17.23;;;11.20;90.60;;;;;;5040214;28;20180;-84
2021/12/12 12:21:50;;;;;;;31.80;18.65;;;11.20;90.70;;;;;;5046764;28;20275;-83
2021/12/12 12:24:55;;;;;;;32.38;17.55;;;11.20;90.10;;;;;;5047010;28;20331;-83
2021/12/12 12:27:51;;;;;;;27.70;16.98;;;11.10;90.20;;;;;;5044381;28;20707;-84
2021/12/12 12:30:50;;;;;;;30.58;17.75;;;11.10;90.20;;;;;;5041651;28;20197;-84
2021/12/12 12:33:36;;;;;;;30.30;17.35;;;11.10;90.50;;;;;;5044419;28;20176;-84
2021/12/12 12:36:50;;;;;;;34.55;18.48;;;11.20;90.50;;;;;;5030031;28;20190;-84
2021/12/12 12:39:31;;;;;;;33.50;18.75;;;11.30;90.40;;;;;;5037496;28;20198;-84
2021/12/12 12:42:21;;;;;;;32.53;18.80;;;11.30;90.30;;;;;;5056057;28;20197;-83
2021/12/12 12:45:24;;;;;;;28.75;18.65;;;11.30;90.20;;;;;;5063925;28;20292;-80
2021/12/12 12:48:05;;;;;;;33.45;16.95;;;11.30;90.30;;;;;;5052691;28;20192;-84
2021/12/12 12:51:09;;;;;;;32.17;17.38;;;11.40;90.30;;;;;;5039476;28;20519;-84
2021/12/12 12:53:47;;;;;;;33.72;18.88;;;11.40;90.40;;;;;;5046807;28;20220;-82
2021/12/12 12:56:54;;;;;;;27.20;17.10;;;11.40;90.30;;;;;;5038343;28;20578;-82
2021/12/12 13:00:06;;;;;;;36.55;17.90;;;11.50;90.30;;;;;;5043306;28;20187;-83
2021/12/12 13:02:44;;;;;;;23.02;16.75;;;11.50;90.20;;;;;;5045933;28;20194;-83
2021/12/12 13:05:48;;;;;;;29.23;18.25;;;11.50;90.10;;;;;;5026969;28;20296;-82
2021/12/12 13:09:06;;;;;;;30.63;17.13;;;11.50;90.10;;;;;;5045892;28;20192;-82
2021/12/12 13:12:07;;;;;;;31.10;18.70;;;11.50;90.00;;;;;;5041356;28;20202;-83
2021/12/12 13:14:47;;;;;;;29.10;17.38;;;11.60;90.00;;;;;;5043530;28;20284;-83
2021/12/12 13:17:41;;;;;;;28.88;16.92;;;11.40;90.00;;;;;;5046690;28;20212;-83
2021/12/12 13:20:47;;;;;;;32.53;17.83;;;11.40;90.10;;;;;;5063173;28;20178;-83
2021/12/12 13:23:38;;;;;;;29.80;18.45;;;11.40;90.20;;;;;;5056425;28;20181;-84
2021/12/12 13:26:11;;;;;;;32.40;18.23;;;11.50;90.40;;;;;;5046263;28;20185;-81
2021/12/12 13:29:14;;;;;;;27.00;16.85;;;11.50;90.30;;;;;;5040780;28;20213;-82
2021/12/12 13:31:51;;;;;;;28.42;17.30;;;11.50;90.30;;;;;;5039669;28;20173;-82
2021/12/12 13:34:37;;;;;;;32.78;17.55;;;11.50;90.40;;;;;;5019506;28;20198;-83
2021/12/12 13:37:09;;;;;;;29.45;18.15;;;11.50;90.40;;;;;;5041814;28;20186;-82
2021/12/12 13:40:08;;;;;;;26.65;17.95;;;11.40;90.40;;;;;;5040048;28;20210;-82